Terminal Aerodrome Forecast
Issued by NWS

Home | Current Version | Previous Version | Text Only | Print | Product List | Glossary On
Versions: 1 2 3 4 5 6 7 8 9 10 11 12 13 14 15 16 17 18 19 20 21 22 23 24 25 26
000
FTUS42 KMFL 242320
TAFOPF
TAF
KOPF 242320Z 2500/2524 08015G22KT P6SM VCSH SCT030 BKN050
     FM250200 09011KT P6SM VCSH SCT030 BKN060
     FM251400 10015G22KT P6SM SCT100 SCT250=

USA.gov is the U.S. government's official web portal to all federal, state and local government web resources and services.